Tiempo atmosférico en la estación meteorológica de Vitigudino, Salamanca (769 m.)



Fecha
DESCASC
Temp. máxima en grados centígrados (hora)
DESCASC
Temp. mínima en grados centígrados (hora)
DESCASC
Temp. media en grados centígrados
DESCASC
Racha de viento máxima en m/sg (hora)
DESCASC
Velocidad máxima media en intervalos de 10 minutos(hora)
DESCASC
Precipitaciones diarias en mm
DESCASC
Precipitaciones de 00:00 a 06:00 en mm
DESCASC
Precipitaciones de 06:00 a 12:00 en mm
DESCASC
Precipitaciones de 12:00 a 18:00 en mm
DESCASC
Precipitaciones de 18:00 a 24:00 en mm
DESCASC
16-01-2020 10.8 (15:10) 5.7 (00:00) 8.3 15.83 (15:10) 8.61 (18:20) 3.6 0 0 0 3.6
14-01-2020 7.1 (16:30) 3.4 (00:00) 5.3 12.5 (23:00) 7.5 (23:20) 0.6 0 0 0 0.6
13-01-2020 11.3 (16:30) -4.6 (-00:0) 3.4 9.72 (13:00) 6.67 (14:10) 0 0 0 0 0
12-01-2020 10.4 (16:00) -3.7 (08:10) 3.3 4.44 (12:40) 3.06 (12:40) 0 0 0 0 0
11-01-2020 7.9 (16:10) -2.3 (-00:0) 2.8 6.67 (13:40) 4.72 (13:40) 0 0 0 0 0
10-01-2020 10.5 (14:30) -2 (-00:0) 4.3 8.61 (14:50) 5.83 (15:10) 0 0 0 0 0
09-01-2020 12.3 (15:50) -0.7 (-00:0) 5.8 12.5 (18:00) 8.06 (18:00) 0 0 0 0 0
08-01-2020 11.1 (15:00) -4.7 (-00:0) 3.2 4.72 (07:40) 3.61 (07:40) 0 0 0 0 0
07-01-2020 6.3 (15:30) -3.2 (-00:0) 1.6 6.39 (02:30) 3.89 (02:30) 0 0 0 0 0
06-01-2020 5.9 (13:20) -3.1 (-00:0) 1.4 4.72 (13:40) 3.06 (21:30) 0 0 0 0 0
05-01-2020 3.8 (15:00) 0 (00:00) 1.9 7.22 (01:40) 4.72 (01:40) 0 0 0 0 0
04-01-2020 6.9 (14:50) 0.9 (00:00) 3.9 10 (18:30) 6.11 (19:20) 0 0 0 0 0
03-01-2020 11 (13:20) 2.7 (00:00) 6.9 4.72 (15:20) 3.06 (15:10) 0 0 0 0 0
02-01-2020 13.8 (15:40) -1.7 (-00:0) 6.1 5.56 (14:40) 3.61 (14:40) 0 0 0 0 0
01-01-2020 16.8 (15:50) -2.3 (-00:0) 7.2 3.06 (16:20) 2.22 (07:40) 0 0 0 0 0
31-12-2019 17.8 (16:20) -1.8 (-00:0) 8 3.06 (16:50) 1.94 (12:00) 0 0 0 0 0
30-12-2019 16.3 (15:50) -0.3 (00:00) 8 3.61 (05:10) 2.78 (05:10) 0 0 0 0 0
29-12-2019 17.6 (15:20) 0.7 (00:00) 9.2 4.44 (07:00) 3.33 (06:20) 0 0 0 0 0
28-12-2019 12.1 (16:30) -1.9 (-00:0) 5.1 6.39 (06:20) 4.72 (06:00) 0 0 0 0 0
27-12-2019 6.2 (15:40) 0.8 (00:00) 3.5 8.06 (05:50) 5.56 (05:50) 0 0 0 0 0
26-12-2019 12.9 (13:40) 2.1 (00:00) 7.5 7.5 (15:20) 5 (15:20) 0 0 0 0 0
25-12-2019 16.4 (14:30) 3.4 (00:00) 9.9 6.39 (05:00) 4.72 (04:30) 0 0 0 0 0
24-12-2019 16.9 (14:30) 3.7 (08:20) 10.3 4.44 (19:20) 3.33 (19:30) 0 0 0 0 0
23-12-2019 14.7 (15:40) 3 (00:00) 8.8 7.22 (13:10) 4.72 (13:10) 0 0 0 0 0
22-12-2019 13.1 (14:00) 4.2 (23:59) 8.7 20 (00:10) 13.33 (00:10) 2 0.2 1.6 0.2 0
15-01-2020 11.4 (13:50) 6.3 (00:00) 8.8 14.44 (04:30) 8.89 (04:10) 12.4 0.2 11.8 0.2 0.2
21-12-2019 13.7 (11:10) 8.1 (23:20) 10.9 28.33 (14:40) 19.44 (14:50) 7.4 0.6 3.2 0.6 3
17-01-2020 12.6 (15:20) 5.1 (00:00) 8.9 9.72 (05:20) 6.39 (12:20) 2.6 2 0.6 0 0
20-12-2019 12.6 (19:10) 6.9 (00:00) 9.8 23.61 (00:30) 16.94 (00:20) 21.6 8.8 1 9.8 2
19-12-2019 12.4 (23:30) 7.1 (08:40) 9.7 25.83 (23:59) 17.22 (23:59) 45.6 17.6 14.6 5.2 8.2

Gráficas

Temp. máximas Temp. mínimas Temp. medias Precipitaciones Rachas de viento máximas Velocidades máximas media en intervalos de 10 minutos

Datos horarios

Fecha y hora oficial Temperatura (ºC) Velocidad del viento (km/h) Dirección del viento Racha (km/h) Dirección de racha Precipitación (mm) Presión (hPa) Tendencia (hPa) Humedad (%)
2020-01-17 23:00:00 5.2 7 Este 13 Sudoeste 0 939.9 -1.1 77
2020-01-17 22:00:00 5.5 5 Este 9 Este 0 940.2 -0.9 70
2020-01-17 21:00:00 5.8 7 Este 12 Este 0 940.5 0.1 70
2020-01-17 20:00:00 5.7 7 Este 9 Este 0 941 0.8 73
2020-01-17 19:00:00 6.6 5 Este 8 Noroeste 0 941.1 0.6 72
2020-01-17 18:00:00 7.8 6 Noroeste 9 Noroeste 0 940.4 0.1 67
2020-01-17 17:00:00 9.5 6 Oeste 23 Oeste 0 940.2 -0.2 62
2020-01-17 16:00:00 12.4 14 Oeste 25 Oeste 0 940.5 -0.3 56
2020-01-17 15:00:00 11.7 17 Oeste 25 Oeste 0 940.3 -1 56
2020-01-17 14:00:00 11.3 17 Oeste 28 Oeste 0 940.4 -0.3 64
2020-01-17 13:00:00 11 19 Oeste 34 Oeste 0 940.8 1 69
2020-01-17 12:00:00 8.1 13 Oeste 25 Sudoeste 0 941.3 2 84
2020-01-17 11:00:00 8.2 16 Sudoeste 25 Oeste 0 940.7 2.1 85
2020-01-17 10:00:00 6.5 12 Sudoeste 22 Oeste 0 939.8 2.3 94
2020-01-17 09:00:00 5.8 15 Sudoeste 22 Sudoeste 0 939.3 2.5 94
2020-01-17 08:00:00 5.8 12 Sudoeste 20 Sudoeste 0 938.6 2.6 94
2020-01-17 07:00:00 6.2 13 Sudoeste 31 Sudoeste 0.6 937.5 1.5 94
2020-01-17 06:00:00 6.3 16 Oeste 35 Sudoeste 1.2 936.8 1.2 94
2020-01-17 05:00:00 6.2 19 Sudoeste 32 Sudoeste 0.4 936 0.6 94
2020-01-17 04:00:00 6 20 Sudoeste 28 Sudoeste 0.4 936 0.6 93
2020-01-17 03:00:00 5.8 14 Sudoeste 29 Sur 0 935.6 0.6 93
2020-01-17 02:00:00 5.8 15 Sudoeste 26 Sur 0 935.4 1 94
2020-01-17 01:00:00 5.6 14 Sudoeste 27 Sudoeste 0 935.4 0.7 94
2020-01-17 00:00:00 5.7 15 Sudoeste 22 Sudoeste 0 935 1 93
2020-01-16 23:00:00 6.2 13 Sudoeste 28 Sudoeste 0.2 934.4 1.7 92
2020-01-16 22:00:00 7.4 26 Sudoeste 43 Sudoeste 0.6 934.7 2.3 92
2020-01-16 21:00:00 7.9 28 Sudoeste 45 Sudoeste 0.6 934 2.1 91
2020-01-16 20:00:00 7.9 21 Sur 45 Sur 2 932.7 1.2 88
2020-01-16 19:00:00 8.4 24 Sur 52 Sudoeste 0.2 932.4 -0.1 83
2020-01-16 18:00:00 9.1 25 Sur 48 Sur 0 931.9 -0.6 71
2020-01-16 17:00:00 10.1 25 Sur 47 Sur 0 931.5 -1.9 66
2020-01-16 16:00:00 10.2 30 Sudoeste 57 Sudoeste 0 932.5 -1.6 65
2020-01-16 15:00:00 10.5 21 Sur 50 Sudoeste 0 932.5 -2.7 65
2020-01-16 14:00:00 10.3 31 Sudoeste 49 Sur 0 933.4 -1.6 62
2020-01-16 13:00:00 10.1 30 Sudoeste 48 Sudoeste 0 934.1 -0.8 67
2020-01-16 12:00:00 10 23 Sudoeste 43 Sudoeste 0 935.2 0.9 72
2020-01-16 11:00:00 10.4 18 Sur 41 Sur 0 935 1.2 72
2020-01-16 10:00:00 8.8 19 Sur 40 Sur 0 934.9 1 84
2020-01-16 09:00:00 8.8 22 Sur 39 Sur 0 934.3 0.5 87
2020-01-16 08:00:00 8.9 21 Sur 37 Sur 0 933.8 -0.3 88
2020-01-16 07:00:00 8.9 15 Sudoeste 34 Sudoeste 0 933.9 -0.3 90
2020-01-16 06:00:00 9 18 Sudoeste 30 Sur 0 933.8 -0.7 90
2020-01-16 05:00:00 9 13 Sur 30 Sur 0 934.1 -0.3 89
2020-01-16 04:00:00 9 13 Sur 27 Sur 0 934.2 -0.5 89
2020-01-16 03:00:00 9 12 Sur 36 Sur 0 934.5 -0.2 90
2020-01-16 02:00:00 9.1 15 Sur 33 Sudoeste 0 934.4 0.1 89
2020-01-16 01:00:00 8.9 9 Sur 31 Sur 0 934.7 0.3 89
2020-01-16 00:00:00 8.9 13 Sur 32 Sur 0 934.7 0.4 89
2020-01-15 23:00:00 8.8 16 Sur 31 Sur 0 934.3 0.3 87
2020-01-15 22:00:00 8.9 14 Sur 27 Sur 0 934.4 0.8 88
2020-01-15 21:00:00 9 9 Sur 24 Sudoeste 0.2 934.3 1.3 89
2020-01-15 20:00:00 9.2 14 Sur 30 Sur 0 934 1.3 88
2020-01-15 19:00:00 9.2 13 Sur 32 Sudoeste 0 933.6 1.5 87
2020-01-15 18:00:00 9.7 17 Sur 34 Sudoeste 0 933 1.1 84
2020-01-15 17:00:00 10.4 21 Sudoeste 40 Sudoeste 0 932.7 0.9 81
2020-01-15 16:00:00 11.2 24 Sudoeste 38 Sudoeste 0 932.1 0.1 78
2020-01-15 15:00:00 10.8 19 Sudoeste 42 Sudoeste 0 931.9 -0.7 79
2020-01-15 14:00:00 10.6 20 Sudoeste 40 Sudoeste 0.2 931.8 -1.1 83
2020-01-15 13:00:00 9.7 17 Sur 31 Sur 0 932 0 88
2020-01-15 12:00:00 7.3 13 Sur 24 Sur 2.8 932.6 3.2 92
2020-01-15 11:00:00 6.4 5 Norte 16 Noroeste 7 932.9 4.2 92
2020-01-15 10:00:00 6.8 15 Noroeste 37 Sudoeste 2 932 4.1 90
2020-01-15 09:00:00 7 28 Sudoeste 47 Sudoeste 0 929.4 1.4 87
2020-01-15 08:00:00 7 23 Sur 47 Sur 0 928.7 0.5 87
2020-01-15 07:00:00 6.8 21 Sur 46 Sudoeste 0 927.9 -0.2 88
2020-01-15 06:00:00 6.9 22 Sur 40 Sur 0.2 928 -0.7 88
2020-01-15 05:00:00 7.3 18 Sur 52 Sur 0 928.2 -0.5 86
2020-01-15 04:00:00 7.3 30 Sur 49 Sur 0 928.1 -0.8 85
2020-01-15 03:00:00 7.4 25 Sur 46 Sur 0 928.7 -0.5 83
2020-01-15 02:00:00 7.3 27 Sur 49 Sur 0 928.7 -0.3 83
2020-01-15 01:00:00 7.1 26 Sur 50 Sur 0 928.9 -0.5 86
2020-01-15 00:00:00 7 23 Sur 45 Sur 0 929.2 -0.5 88
2020-01-14 23:00:00 6.7 22 Sur 45 Sudoeste 0.2 929 -0.4 88
2020-01-14 22:00:00 6.3 21 Sudoeste 38 Sur 0.2 929.4 -0.4 90
2020-01-14 21:00:00 6 19 Sudoeste 37 Sudoeste 0.2 929.7 0.1 88
2020-01-14 20:00:00 5.9 16 Sur 31 Sudoeste 0 929.4 -0.1 85
2020-01-14 19:00:00 6 21 Sur 39 Sur 0 929.8 0.3 84
2020-01-14 18:00:00 6.2 17 Sur 32 Sudoeste 0 929.6 -0.1 81
2020-01-14 17:00:00 6.7 20 Sur 41 Sur 0 929.5 -0.7 79
2020-01-14 16:00:00 6.7 15 Sur 34 Sur 0 929.5 -1.6 80
2020-01-14 15:00:00 6.5 13 Sur 34 Sur 0 929.7 -2.1 79
2020-01-14 14:00:00 6.2 16 Sur 38 Sur 0 930.2 -1.7 79
2020-01-14 13:00:00 6.5 20 Sur 36 Sur 0 931.1 -0.3 77
2020-01-14 12:00:00 6.4 19 Sur 34 Sudoeste 0 931.8 0.7 76
2020-01-14 11:00:00 5.5 17 Sudoeste 28 Sudoeste 0 931.9 0.8 79
2020-01-14 10:00:00 4.7 14 Sudoeste 24 Sur 0 931.4 0.5 82
2020-01-14 09:00:00 4.2 12 Sur 21 Sur 0 931.1 0.3 82
2020-01-14 08:00:00 3.9 9 Sur 20 Sur 0 931.1 0 82
2020-01-14 07:00:00 3.5 8 Sur 19 Sur 0 930.9 -0.8 82
2020-01-14 06:00:00 3.7 8 Sur 19 Sur 0 930.8 -1.1 81
2020-01-14 05:00:00 4 7 Sur 22 Sudoeste 0 931.1 -0.9 80
2020-01-14 04:00:00 3.8 12 Sur 24 Sur 0 931.7 -0.9 81
2020-01-14 03:00:00 3.6 12 Sudoeste 27 Sudoeste 0 931.9 -1.1 82
2020-01-14 02:00:00 3.7 18 Sudoeste 29 Sudoeste 0 932 -1.2 81
2020-01-14 01:00:00 4.1 15 Sudoeste 32 Sudoeste 0 932.6 -1 80
2020-01-14 00:00:00 4.3 15 Sudoeste 25 Sur 0 933 -0.1 79
2020-01-13 23:00:00 3.8 14 Sudoeste 21 Sudoeste 0 933.2 0.2 82
2020-01-13 22:00:00 3.3 11 Sudoeste 19 Sudoeste 0 933.6 1.5 83
2020-01-13 21:00:00 2.5 14 Sudoeste 19 Sudoeste 0 933.1 1 82
2020-01-13 20:00:00 2.2 12 Sudoeste 20 Sudoeste 0 933 1 82
2020-01-13 19:00:00 3.3 7 Sudoeste 12 Sudoeste 0 932.1 -0.5 76
2020-01-13 18:00:00 6.2 8 Oeste 15 Oeste 0 932.1 -1.1 66
2020-01-13 17:00:00 10.5 11 Oeste 22 Sudoeste 0 932 -1.8 55
2020-01-13 16:00:00 10.7 16 Sudoeste 27 Sudoeste 0 932.6 -2 53
2020-01-13 15:00:00 10 15 Sudoeste 33 Sudoeste 0 933.2 -2.5 57
2020-01-13 14:00:00 9.9 18 Sudoeste 28 Sudoeste 0 933.8 -2.1 54
2020-01-13 13:00:00 7.9 22 Sudoeste 35 Sudoeste 0 934.6 -1.2 64
2020-01-13 12:00:00 4.5 16 Sudoeste 23 Sudoeste 0 935.7 0.3 82
2020-01-13 11:00:00 0.2 5 Sur 9 Sudoeste 0 935.9 0.7 92
2020-01-13 10:00:00 -2.7 4 Nordeste 13 Norte 0 935.8 0.8 93
2020-01-13 09:00:00 -3.5 4 Norte 10 Norte 0 935.4 0.2 93
2020-01-13 08:00:00 -4.2 4 Este 5 Este 0 935.2 -0.6 93
2020-01-13 07:00:00 -4.1 3 Este 8 Sudeste 0 935 -1.7 93
2020-01-13 06:00:00 -4.2 3 Sudoeste 5 Sur 0 935.2 -1.9 93
2020-01-13 05:00:00 -4.4 4 Nordeste 8 Este 0 935.8 -1.6 92
2020-01-13 04:00:00 -4.5 5 Nordeste 6 Nordeste 0 936.7 -1.3 92
2020-01-13 03:00:00 -4.1 2 Este 9 Nordeste 0 937.1 -1.5 92
2020-01-13 02:00:00 -4 5 Nordeste 9 Nordeste 0 937.4 -1.2 92
2020-01-13 01:00:00 -3.4 6 Nordeste 8 Nordeste 0 938 -0.8 92
2020-01-13 00:00:00 -2.7 6 Norte 9 Nordeste 0 938.6 -0.5 91
2020-01-12 23:00:00 -1.6 4 Nordeste 7 Nordeste 0 938.6 -1 91
2020-01-12 22:00:00 -1 6 Nordeste 14 Nordeste 0 938.8 -0.9 90
2020-01-12 21:00:00 -0.4 9 Nordeste 13 Nordeste 0 939.1 -0.1 90
2020-01-12 20:00:00 0.3 9 Nordeste 13 Nordeste 0 939.6 0.4 87
2020-01-12 19:00:00 1.9 8 Norte 12 Norte 0 939.7 0.5 81
2020-01-12 18:00:00 5.8 7 Norte 10 Norte 0 939.2 -0.1 63
2020-01-12 17:00:00 8.7 5 Norte 11 Norte 0 939.2 -0.7 54
2020-01-12 16:00:00 10 6 Nordeste 13 Nordeste 0 939.2 -1.7 53
2020-01-12 15:00:00 9.7 7 Este 13 Este 0 939.3 -2.4 55
2020-01-12 14:00:00 8.9 7 Nordeste 15 Nordeste 0 939.9 -1.8 60
2020-01-12 13:00:00 7.3 10 Nordeste 16 Nordeste 0 940.9 -0.1 67
2020-01-12 12:00:00 5.3 9 Nordeste 13 Nordeste 0 941.7 0.8 77
2020-01-12 11:00:00 3.7 5 Nordeste 9 Este 0 941.7 1.4 87
2020-01-12 10:00:00 -0.6 6 Este 9 Nordeste 0 941 0.8 96
2020-01-12 09:00:00 -3.6 6 Norte 11 Noroeste 0 940.9 0.8 95
2020-01-12 08:00:00 -3.5 0 Calma 4 Sudeste 0 940.3 0.1 95
2020-01-12 07:00:00 -3.2 2 Este 4 Sudeste 0 940.2 -0.5 95
2020-01-12 06:00:00 -3.6 0 Calma 5 Sudeste 0 940.1 -0.6 94
2020-01-12 05:00:00 -3.2 5 Sudeste 8 Sudeste 0 940.2 -0.5 95
2020-01-12 04:00:00 -3.1 3 Sudeste 5 Sudeste 0 940.7 -0.1 94
2020-01-12 03:00:00 -3 0 Calma 5 Sur 0 940.7 -0.2 93
2020-01-12 02:00:00 -2.9 3 Sur 4 Sur 0 940.7 -0.1 92
2020-01-12 01:00:00 -2.2 0 Calma 4 Este 0 940.8 -0.1 91
2020-01-12 00:00:00 -2 0 Calma 4 Sudeste 0 940.9 -0.2 91
2020-01-11 23:00:00 -1.1 3 Sudeste 5 Este 0 940.8 -0.1 91
2020-01-11 22:00:00 -0.7 6 Este 9 Este 0 940.9 0.3 88
2020-01-11 21:00:00 -0.1 5 Nordeste 7 Este 0 941.1 0.6 85
2020-01-11 20:00:00 1.2 4 Nordeste 10 Nordeste 0 940.9 0.8 83
2020-01-11 19:00:00 2.5 8 Nordeste 10 Nordeste 0 940.6 0.6 79
2020-01-11 18:00:00 4.9 5 Nordeste 14 Nordeste 0 940.5 0.3 65
2020-01-11 17:00:00 7.8 9 Este 19 Nordeste 0 940.1 -0.7 58
2020-01-11 16:00:00 7.8 14 Este 21 Este 0 940 -1.7 66
2020-01-11 15:00:00 7.2 15 Nordeste 24 Nordeste 0 940.2 -2.5 70
2020-01-11 14:00:00 6.2 15 Este 24 Este 0 940.8 -2 72
2020-01-11 13:00:00 4.2 14 Este 22 Este 0 941.7 -0.3 81
2020-01-11 12:00:00 3.7 12 Este 21 Nordeste 0 942.7 1.3 81
2020-01-11 11:00:00 3.8 11 Nordeste 17 Nordeste 0 942.8 1.2 83
2020-01-11 10:00:00 0.4 5 Este 13 Este 0 942 0.5 93
2020-01-11 09:00:00 -2.2 7 Este 13 Este 0 941.4 0.1 93
2020-01-11 08:00:00 -1.7 8 Este 16 Este 0 941.6 0.2 93
2020-01-11 07:00:00 -1.4 10 Este 17 Este 0 941.5 0 93
2020-01-11 06:00:00 -1.5 7 Nordeste 13 Nordeste 0 941.3 -0.3 92
2020-01-11 05:00:00 -1 9 Nordeste 16 Nordeste 0 941.4 -0.1 91
2020-01-11 04:00:00 -0.8 9 Este 14 Nordeste 0 941.5 -0.3 91
2020-01-11 03:00:00 -0.6 10 Este 15 Este 0 941.6 -0.3 90
2020-01-11 02:00:00 -0.4 10 Nordeste 15 Nordeste 0 941.5 -0.2 89
2020-01-11 01:00:00 -0.5 10 Nordeste 13 Nordeste 0 941.8 0.2 90
2020-01-11 00:00:00 -0.4 7 Este 10 Este 0 941.9 0.7 88
2020-01-10 23:00:00 0.3 5 Este 11 Este 0 941.7 0.7 86
2020-01-10 22:00:00 1.2 8 Este 14 Este 0 941.6 0.8 85
2020-01-10 21:00:00 1.5 9 Este 16 Este 0 941.2 0.8 82
2020-01-10 20:00:00 2.6 9 Este 19 Este 0 941 1 78
2020-01-10 19:00:00 3.6 9 Este 17 Nordeste 0 940.8 1.3 74
2020-01-10 18:00:00 5.7 12 Nordeste 23 Nordeste 0 940.4 0.8 66
2020-01-10 17:00:00 8.6 15 Nordeste 31 Nordeste 0 940 0.2 55
2020-01-10 16:00:00 9.7 19 Nordeste 29 Nordeste 0 939.5 -0.2 52
2020-01-10 15:00:00 9.9 19 Nordeste 31 Nordeste 0 939.6 -1.1 49
2020-01-10 14:00:00 10.1 18 Nordeste 30 Nordeste 0 939.8 -0.5 52
2020-01-10 13:00:00 8.7 19 Nordeste 28 Nordeste 0 939.7 0 60
2020-01-10 12:00:00 6.3 11 Norte 18 Norte 0 940.7 1.1 76
2020-01-10 11:00:00 4.2 8 Nordeste 13 Nordeste 0 940.3 1.3 85
2020-01-10 10:00:00 1.1 6 Nordeste 10 Este 0 939.7 1.1 95
2020-01-10 09:00:00 -1.9 7 Nordeste 9 Norte 0 939.6 1.6 94
2020-01-10 08:00:00 -1 6 Nordeste 13 Norte 0 939 1.1 94
2020-01-10 07:00:00 -0.6 8 Norte 13 Noroeste 0 938.6 0.4 95
2020-01-10 06:00:00 -0.2 9 Norte 11 Noroeste 0 938 -0.2 95
2020-01-10 05:00:00 0.2 8 Noroeste 11 Noroeste 0 937.9 -0.2 95
2020-01-10 04:00:00 0.1 8 Noroeste 14 Noroeste 0 938.2 -0.1 94
2020-01-10 03:00:00 -0.1 6 Noroeste 14 Oeste 0 938.2 -0.4 93
2020-01-10 02:00:00 0.3 6 Oeste 10 Oeste 0 938.1 0.3 92
2020-01-10 01:00:00 1.3 9 Oeste 18 Oeste 0 938.3 0.8 91
2020-01-10 00:00:00 1.9 10 Oeste 26 Noroeste 0 938.6 1.8 90
2020-01-09 23:00:00 3 10 Noroeste 22 Noroeste 0 937.8 0.8 92
2020-01-09 22:00:00 3.9 9 Oeste 15 Sudoeste 0 937.5 0.7 93
2020-01-09 21:00:00 4 12 Sudoeste 17 Sudoeste 0 936.8 0.5 92
2020-01-09 20:00:00 4.9 7 Sudoeste 17 Oeste 0 937 1.6 88
2020-01-09 19:00:00 7.3 11 Oeste 37 Noroeste 0 936.8 1.8 86
2020-01-09 18:00:00 9.3 29 Oeste 45 Oeste 0 936.3 1.2 87
2020-01-09 17:00:00 10.9 22 Oeste 40 Oeste 0 935.4 -0.8 81
2020-01-09 16:00:00 12 22 Oeste 34 Oeste 0 935 -2.1 81
2020-01-09 15:00:00 10.7 18 Sudoeste 29 Sudoeste 0 935.1 -2.9 87
2020-01-09 14:00:00 9.1 13 Sudoeste 24 Sudoeste 0 936.2 -2.3 90
2020-01-09 13:00:00 8.8 13 Sudoeste 19 Sudoeste 0 937.1 -0.5 91
2020-01-09 12:00:00 6.4 9 Sudoeste 14 Sur 0 938 0.6 94
2020-01-09 11:00:00 5.5 9 Sudoeste 14 Sudoeste 0 938.5 1.2 93
2020-01-09 10:00:00 2.9 4 Sur 10 Sur 0 937.6 0.4 95
2020-01-09 09:00:00 1.5 4 Sur 8 Sur 0 937.4 0.2 95
2020-01-09 08:00:00 0.4 3 Sur 9 Sur 0 937.3 0 94
2020-01-09 07:00:00 -0.2 6 Sur 9 Sur 0 937.2 -0.3 94
2020-01-09 06:00:00 -0.3 3 Sur 8 Sudeste 0 937.2 -0.6 93
2020-01-09 05:00:00 -0.2 3 Sur 6 Sur 0 937.3 -0.5 93
2020-01-09 04:00:00 0.5 5 Sur 10 Sur 0 937.5 -0.8 93
2020-01-09 03:00:00 0.5 6 Sur 10 Sur 0 937.8 -1.2 93
2020-01-09 02:00:00 0.3 5 Sur 9 Sur 0 937.8 -1.4 91
2020-01-09 01:00:00 -0.2 6 Sudeste 9 Sur 0 938.3 -0.8 92
2020-01-09 00:00:00 -0.3 2 Este 4 Oeste 0 939 0 90
2020-01-08 23:00:00 0 4 Sur 5 Sudoeste 0 939.2 0.4 89
2020-01-08 22:00:00 0.6 2 Sur 8 Oeste 0 939.1 0.4 87
2020-01-08 21:00:00 1.6 3 Sudoeste 6 Noroeste 0 939 0.3 84
2020-01-08 20:00:00 2.9 2 Sudoeste 6 Oeste 0 938.8 0.2 79
2020-01-08 19:00:00 5 4 Noroeste 9 Noroeste 0 938.7 0 74
2020-01-08 18:00:00 7.3 6 Noroeste 12 Noroeste 0 938.7 -0.1 68
2020-01-08 17:00:00 10.7 6 Norte 15 Norte 0 938.6 -0.8 58
2020-01-08 16:00:00 10.9 9 Norte 13 Norte 0 938.7 -1.4 53
2020-01-08 15:00:00 10.9 9 Nordeste 15 Nordeste 0 938.8 -2.2 48
2020-01-08 14:00:00 8.9 10 Nordeste 16 Nordeste 0 939.4 -2 55
2020-01-08 13:00:00 7 8 Nordeste 15 Nordeste 0 940.1 -1.2 67
2020-01-08 12:00:00 4 6 Nordeste 11 Nordeste 0 941 0.1 81
2020-01-08 11:00:00 0.8 3 Nordeste 6 Norte 0 941.4 1 87
2020-01-08 10:00:00 -2.5 3 Norte 9 Nordeste 0 941.3 0.9 94
2020-01-08 09:00:00 -4.2 4 Sur 13 Este 0 940.9 0.5 94
2020-01-08 08:00:00 -3.7 10 Este 17 Nordeste 0 940.4 0 95
2020-01-08 07:00:00 -4.6 9 Nordeste 15 Norte 0 940.4 -0.2 95
2020-01-08 06:00:00 -4.5 10 Norte 14 Nordeste 0 940.4 -0.5 94
2020-01-08 05:00:00 -4.2 8 Norte 11 Nordeste 0 940.4 -0.7 95
2020-01-08 04:00:00 -4.2 3 Nordeste 4 Nordeste 0 940.6 -1 95
2020-01-08 03:00:00 -4.2 0 Calma 2 Este 0 940.9 -0.9 94
2020-01-08 02:00:00 -3.9 3 Sudeste 5 Este 0 941.1 -0.8 95
2020-01-08 01:00:00 -4.1 2 Norte 5 Sur 0 941.6 -0.4 93
2020-01-08 00:00:00 -3.1 2 Sur 4 Este 0 941.8 -0.1 93
2020-01-07 23:00:00 -2.1 4 Este 8 Nordeste 0 941.9 0 94
2020-01-07 22:00:00 -1.2 5 Nordeste 9 Norte 0 942 0.4 93
2020-01-07 21:00:00 -0.8 5 Norte 9 Norte 0 941.9 0.4 92
2020-01-07 20:00:00 -0.2 8 Norte 10 Norte 0 941.9 0.5 91
2020-01-07 19:00:00 0.9 6 Norte 13 Norte 0 941.6 0.2 87
2020-01-07 18:00:00 3.1 7 Norte 11 Norte 0 941.5 -0.1 83
2020-01-07 17:00:00 5.6 7 Norte 12 Norte 0 941.4 -0.7 77
2020-01-07 16:00:00 6.2 8 Norte 14 Norte 0 941.4 -1.4 78
2020-01-07 15:00:00 5.7 7 Norte 12 Norte 0 941.6 -1.6 79
2020-01-07 14:00:00 4.7 5 Nordeste 11 Nordeste 0 942.1 -1.2 91
2020-01-07 13:00:00 1.8 6 Este 12 Nordeste 0 942.8 -0.4 96
2020-01-07 12:00:00 0.3 2 Este 12 Sudeste 0 943.2 0.7 97
2020-01-07 11:00:00 -1 7 Este 15 Este 0 943.3 1.3 97
2020-01-07 10:00:00 -1.8 8 Este 15 Este 0 943.2 1.2 97
2020-01-07 09:00:00 -1.9 10 Este 18 Este 0 942.5 0.7 97
2020-01-07 08:00:00 -2.2 9 Nordeste 15 Nordeste 0 942 0.1 97
2020-01-07 07:00:00 -2.3 8 Nordeste 12 Nordeste 0 942 0 97
2020-01-07 06:00:00 -2.4 5 Este 14 Este 0 941.8 0 97
2020-01-07 05:00:00 -1.9 8 Este 18 Nordeste 0 941.9 0.2 97
2020-01-07 04:00:00 -1.8 14 Este 19 Este 0 942 0.6 97
2020-01-07 03:00:00 -2 14 Nordeste 23 Nordeste 0 941.8 0.5 97
2020-01-07 02:00:00 -2.7 13 Nordeste 21 Norte 0 941.7 0.4 96
2020-01-07 01:00:00 -2.8 9 Norte 14 Norte 0 941.4 0.5 96
2020-01-07 00:00:00 -3 9 Nordeste 13 Este 0 941.3 0.3 95
2020-01-06 23:00:00 -2.2 5 Nordeste 12 Nordeste 0 941.3 0.6 95
2020-01-06 22:00:00 -1.7 8 Este 17 Nordeste 0 940.9 0.9 95
2020-01-06 21:00:00 -2 8 Norte 14 Norte 0 941 1.2 94
2020-01-06 20:00:00 -0.4 5 Norte 7 Norte 0 940.7 1.6 90
2020-01-06 19:00:00 1 3 Este 12 Noroeste 0 940 1 89
2020-01-06 18:00:00 3.1 8 Noroeste 12 Noroeste 0 939.8 1.1 85
2020-01-06 17:00:00 5.1 4 Nordeste 10 Norte 0 939.1 0.2 82
2020-01-06 16:00:00 5.1 9 Norte 14 Norte 0 939 -0.3 80
2020-01-06 15:00:00 4.8 7 Norte 14 Noroeste 0 938.7 -1.3 82
2020-01-06 14:00:00 3.3 8 Norte 17 Noroeste 0 938.9 -1.4 85
2020-01-06 13:00:00 4.3 4 Sudoeste 13 Este 0 939.3 -0.9 92
2020-01-06 12:00:00 -0.1 6 Sudeste 14 Este 0 940 0.2 97
2020-01-06 11:00:00 -1.8 6 Este 13 Sudeste 0 940.3 1.6 97
2020-01-06 10:00:00 -2.4 7 Este 10 Este 0 940.2 1.6 97